Time;durP1;ratioP1;P1;durP2;ratioP2;P2;SDS_P1;SDS_P2;PMS_P1;PMS_P2;Temp;Humidity;BMP_temperature;BMP_pressure;BME280_temperature;BME280_humidity;BME280_pressure;Samples;Min_cycle;Max_cycle;Signal;HPM_P1;HPM_P2
2022/11/13 00:01:11;;;;;;;8.30;5.47;;;12.20;54.60;;;;;;4973852;28;20061;-44
2022/11/13 00:03:38;;;;;;;10.50;6.00;;;12.20;54.60;;;;;;4975665;28;20051;-42
2022/11/13 00:06:06;;;;;;;11.02;5.97;;;12.20;54.60;;;;;;4971864;28;20116;-47
2022/11/13 00:08:34;;;;;;;8.52;6.30;;;12.20;54.60;;;;;;4970527;28;20498;-45
2022/11/13 00:11:03;;;;;;;7.68;5.57;;;12.20;54.60;;;;;;4967731;28;20050;-44
2022/11/13 00:13:33;;;;;;;8.55;5.95;;;12.20;54.60;;;;;;4977180;28;20054;-42
2022/11/13 00:16:02;;;;;;;8.45;5.70;;;12.20;54.60;;;;;;4977989;28;20050;-41
2022/11/13 00:18:30;;;;;;;11.45;6.07;;;12.10;54.60;;;;;;4972818;28;20516;-44
2022/11/13 00:20:57;;;;;;;7.53;5.50;;;12.10;54.50;;;;;;4968805;28;20670;-40
2022/11/13 00:23:25;;;;;;;10.88;7.05;;;12.10;54.50;;;;;;4972035;28;20636;-45
2022/11/13 00:25:52;;;;;;;11.23;6.85;;;12.10;54.50;;;;;;4971409;28;20490;-43
2022/11/13 00:28:19;;;;;;;10.90;6.97;;;12.10;54.50;;;;;;4979454;28;20057;-43
2022/11/13 00:30:48;;;;;;;9.13;6.28;;;12.10;54.50;;;;;;4971377;28;20061;-45
2022/11/13 00:33:15;;;;;;;10.00;6.68;;;12.00;54.50;;;;;;4976157;28;20054;-44
2022/11/13 00:35:42;;;;;;;11.50;6.85;;;12.00;54.40;;;;;;4974549;28;20058;-42
2022/11/13 00:38:09;;;;;;;10.38;6.50;;;12.00;54.40;;;;;;4968211;28;20065;-43
2022/11/13 00:40:37;;;;;;;9.85;6.57;;;11.90;54.50;;;;;;4972685;28;20506;-43
2022/11/13 00:43:04;;;;;;;11.35;5.97;;;11.90;54.50;;;;;;4979118;28;20664;-46
2022/11/13 00:45:31;;;;;;;12.02;6.68;;;11.90;54.50;;;;;;4969757;28;20046;-44
2022/11/13 00:48:00;;;;;;;10.07;6.47;;;11.90;54.50;;;;;;4974502;28;20062;-42
2022/11/13 00:50:27;;;;;;;7.72;5.72;;;11.80;54.50;;;;;;4964653;28;20057;-48
2022/11/13 00:52:54;;;;;;;9.35;6.18;;;11.90;54.60;;;;;;4964398;28;20086;-42
2022/11/13 00:55:22;;;;;;;9.13;5.90;;;11.80;54.60;;;;;;4967831;28;20410;-43
2022/11/13 00:57:49;;;;;;;10.07;6.30;;;11.80;54.50;;;;;;4971051;28;20069;-43
2022/11/13 01:00:17;;;;;;;8.82;6.10;;;11.80;54.60;;;;;;4972844;28;20486;-43
2022/11/13 01:02:44;;;;;;;8.82;6.22;;;11.80;54.60;;;;;;4973773;28;20050;-41
2022/11/13 01:05:13;;;;;;;10.05;6.45;;;11.70;54.60;;;;;;4974391;28;20089;-42
2022/11/13 01:07:40;;;;;;;9.63;6.38;;;11.70;54.60;;;;;;4980686;28;20054;-45
2022/11/13 01:10:08;;;;;;;8.85;6.07;;;11.70;54.60;;;;;;4979188;28;20046;-44
2022/11/13 01:12:35;;;;;;;11.52;5.82;;;11.70;54.60;;;;;;4977287;28;20513;-42
2022/11/13 01:15:03;;;;;;;9.02;5.97;;;11.60;54.60;;;;;;4980457;28;21056;-41
2022/11/13 01:17:30;;;;;;;9.52;6.50;;;11.60;54.60;;;;;;4981992;28;20058;-43
2022/11/13 01:19:57;;;;;;;11.15;7.10;;;11.60;54.60;;;;;;4979372;28;20057;-46
2022/11/13 01:22:26;;;;;;;10.63;6.95;;;11.50;54.60;;;;;;4978324;28;20050;-41
2022/11/13 01:24:53;;;;;;;9.52;6.50;;;11.50;54.70;;;;;;4984074;28;20046;-43
2022/11/13 01:27:20;;;;;;;9.30;6.25;;;11.50;54.80;;;;;;4980509;28;20081;-41
2022/11/13 01:29:48;;;;;;;8.48;5.70;;;11.50;54.80;;;;;;4980573;28;20058;-41
2022/11/13 01:32:15;;;;;;;10.23;5.97;;;11.50;54.80;;;;;;4976786;28;20053;-40
2022/11/13 01:34:42;;;;;;;9.00;6.30;;;11.40;54.80;;;;;;4977402;28;20061;-41
2022/11/13 01:37:09;;;;;;;8.27;5.75;;;11.40;54.80;;;;;;4980728;28;20070;-42
2022/11/13 01:39:38;;;;;;;9.38;6.22;;;11.40;54.80;;;;;;4982175;28;20046;-43
2022/11/13 01:42:05;;;;;;;10.43;6.05;;;11.40;54.90;;;;;;4978023;28;20054;-45
2022/11/13 01:44:48;;;;;;;8.45;5.85;;;11.40;54.90;;;;;;4977618;28;20066;-42
2022/11/13 01:47:16;;;;;;;9.20;5.97;;;11.30;54.90;;;;;;4979884;28;20410;-44
2022/11/13 01:49:46;;;;;;;10.48;6.75;;;11.30;54.90;;;;;;4976954;28;20062;-42
2022/11/13 01:52:17;;;;;;;9.43;5.85;;;11.30;54.90;;;;;;4977264;28;20062;-43
2022/11/13 01:54:49;;;;;;;9.85;6.03;;;11.30;55.00;;;;;;4981839;28;20049;-41
2022/11/13 01:57:17;;;;;;;10.60;6.72;;;11.30;55.00;;;;;;4977336;28;20046;-45
2022/11/13 01:59:50;;;;;;;9.32;5.97;;;11.20;54.90;;;;;;4984392;28;20422;-41
2022/11/13 02:02:17;;;;;;;10.32;6.95;;;11.30;55.00;;;;;;4981068;28;20392;-41
2022/11/13 02:04:45;;;;;;;8.52;5.97;;;11.20;54.90;;;;;;4977551;28;20057;-40
2022/11/13 02:07:15;;;;;;;8.57;6.22;;;11.20;55.00;;;;;;4976576;28;21460;-40
2022/11/13 02:09:44;;;;;;;9.52;6.50;;;11.20;55.00;;;;;;4974957;28;20046;-42
2022/11/13 02:12:15;;;;;;;9.57;6.28;;;11.10;55.00;;;;;;4979775;28;20054;-41
2022/11/13 02:14:45;;;;;;;11.95;6.78;;;11.10;55.00;;;;;;4990050;28;20050;-40
2022/11/13 02:17:18;;;;;;;9.45;6.70;;;11.10;55.00;;;;;;4978453;28;20067;-40
2022/11/13 02:19:50;;;;;;;9.73;6.30;;;11.10;55.00;;;;;;4978403;28;20050;-43
2022/11/13 02:22:24;;;;;;;8.07;5.70;;;11.10;55.10;;;;;;4978383;28;20061;-43
2022/11/13 02:24:54;;;;;;;9.07;5.57;;;11.00;55.10;;;;;;4973284;28;20053;-41
2022/11/13 02:27:26;;;;;;;9.98;6.47;;;11.00;55.10;;;;;;4979346;28;20065;-41
2022/11/13 02:29:53;;;;;;;10.45;6.30;;;11.00;55.20;;;;;;4977661;28;20058;-44
2022/11/13 02:32:20;;;;;;;10.38;6.22;;;11.00;55.20;;;;;;4981870;28;20787;-42
2022/11/13 02:34:48;;;;;;;7.82;5.55;;;10.90;55.20;;;;;;4978389;28;20522;-40
2022/11/13 02:37:15;;;;;;;8.93;5.75;;;10.90;55.20;;;;;;4974419;28;20062;-44
2022/11/13 02:39:42;;;;;;;9.98;6.25;;;10.90;55.20;;;;;;4973738;28;20047;-43
2022/11/13 02:42:11;;;;;;;9.57;6.93;;;10.90;55.30;;;;;;4977483;28;20054;-45
2022/11/13 02:44:38;;;;;;;8.60;5.88;;;10.90;55.30;;;;;;4983654;28;20070;-41
2022/11/13 02:47:05;;;;;;;9.80;6.10;;;10.90;55.40;;;;;;4978909;28;20053;-42
2022/11/13 02:49:32;;;;;;;8.68;5.65;;;10.80;55.30;;;;;;4975776;28;20065;-44
2022/11/13 02:52:00;;;;;;;10.32;6.78;;;10.80;55.30;;;;;;4978850;28;20459;-42
2022/11/13 02:54:27;;;;;;;11.27;6.20;;;10.80;55.30;;;;;;4974237;28;20058;-42
2022/11/13 02:56:54;;;;;;;9.18;5.65;;;10.80;55.30;;;;;;4977269;28;20051;-40
2022/11/13 02:59:23;;;;;;;8.80;6.00;;;10.70;55.30;;;;;;4980374;28;20646;-40
2022/11/13 03:01:50;;;;;;;7.78;5.18;;;10.70;55.30;;;;;;4978190;28;20494;-41
2022/11/13 03:04:17;;;;;;;9.60;5.60;;;10.70;55.40;;;;;;4982703;28;20069;-53
2022/11/13 03:06:44;;;;;;;9.13;6.32;;;10.70;55.40;;;;;;4980186;28;20065;-54
2022/11/13 03:09:12;;;;;;;8.18;5.85;;;10.70;55.40;;;;;;4977511;28;20058;-51
2022/11/13 03:11:39;;;;;;;7.30;5.07;;;10.70;55.40;;;;;;4979952;28;20046;-53
2022/11/13 03:14:06;;;;;;;8.18;5.35;;;10.60;55.30;;;;;;4982867;28;20057;-54
2022/11/13 03:16:35;;;;;;;8.55;5.88;;;10.70;55.40;;;;;;4982331;28;20073;-54
2022/11/13 03:19:03;;;;;;;7.78;5.63;;;10.60;55.40;;;;;;4977694;28;20494;-52
2022/11/13 03:21:31;;;;;;;8.25;5.75;;;10.60;55.30;;;;;;4979439;28;20053;-51
2022/11/13 03:27:21;;;;;;;8.18;5.38;;;10.60;55.30;;;;;;4973731;28;20046;-54
2022/11/13 03:29:48;;;;;;;6.97;5.18;;;10.60;55.30;;;;;;4971751;28;20050;-50
2022/11/13 03:32:17;;;;;;;9.35;5.68;;;10.60;55.20;;;;;;4971516;28;20553;-49
2022/11/13 03:34:44;;;;;;;8.73;5.72;;;10.50;55.20;;;;;;4973366;28;20383;-54
2022/11/13 03:37:11;;;;;;;7.10;4.68;;;10.50;55.20;;;;;;4973429;28;20061;-54
2022/11/13 03:39:38;;;;;;;5.50;4.05;;;10.50;55.20;;;;;;4973820;28;20732;-52
2022/11/13 03:42:06;;;;;;;6.32;4.88;;;10.50;55.30;;;;;;4970636;28;20562;-52
2022/11/13 03:44:33;;;;;;;7.38;4.60;;;10.50;55.20;;;;;;4971317;28;20058;-51
2022/11/13 03:47:00;;;;;;;7.72;5.15;;;10.50;55.10;;;;;;4970698;28;20063;-52
2022/11/13 03:49:29;;;;;;;7.13;4.80;;;10.50;55.10;;;;;;4977649;28;20130;-52
2022/11/13 03:51:56;;;;;;;7.18;4.18;;;10.50;55.10;;;;;;4972174;28;20498;-54
2022/11/13 03:54:23;;;;;;;5.82;4.07;;;10.50;55.20;;;;;;4971094;28;20061;-52
2022/11/13 03:56:51;;;;;;;5.63;3.85;;;10.50;55.20;;;;;;4971693;28;20062;-43
2022/11/13 03:59:18;;;;;;;7.95;4.85;;;10.50;55.20;;;;;;4971696;28;20062;-42
2022/11/13 04:01:45;;;;;;;7.97;4.97;;;10.50;55.20;;;;;;4968884;28;21004;-41
2022/11/13 04:04:12;;;;;;;6.32;4.60;;;10.40;55.10;;;;;;4969609;28;20057;-41
2022/11/13 04:06:41;;;;;;;7.10;4.65;;;10.50;55.10;;;;;;4968799;28;20065;-43
2022/11/13 04:09:08;;;;;;;7.18;4.07;;;10.50;55.60;;;;;;4968242;28;20065;-47
2022/11/13 04:11:35;;;;;;;6.60;4.57;;;10.40;55.10;;;;;;4969116;28;20655;-42
2022/11/13 04:14:03;;;;;;;6.32;4.43;;;10.50;55.10;;;;;;4970313;28;20506;-45
2022/11/13 04:16:30;;;;;;;6.70;4.55;;;10.50;55.00;;;;;;4987001;28;20054;-41
2022/11/13 04:18:57;;;;;;;5.32;4.00;;;10.50;55.00;;;;;;4990984;28;20391;-41
2022/11/13 04:21:24;;;;;;;8.05;4.53;;;10.40;54.90;;;;;;4992765;28;20061;-41
2022/11/13 04:23:53;;;;;;;6.30;4.28;;;10.40;54.90;;;;;;4985903;28;20422;-49
2022/11/13 04:26:20;;;;;;;6.30;4.05;;;10.40;54.90;;;;;;4987018;28;20054;-42
2022/11/13 04:28:47;;;;;;;5.45;3.53;;;10.40;54.90;;;;;;4984627;28;20046;-41
2022/11/13 04:31:14;;;;;;;7.05;3.58;;;10.40;54.90;;;;;;4990073;28;20482;-42
2022/11/13 04:33:42;;;;;;;6.18;4.18;;;10.40;54.80;;;;;;4988109;28;20057;-40
2022/11/13 04:36:09;;;;;;;5.47;3.80;;;10.40;54.80;;;;;;4998677;28;20057;-41
2022/11/13 04:38:36;;;;;;;7.68;3.63;;;10.40;54.80;;;;;;4997861;28;21153;-41
2022/11/13 04:43:55;;;;;;;5.88;4.00;;;10.40;54.80;;;;;;4970280;28;20065;-42
2022/11/13 04:46:22;;;;;;;5.45;3.55;;;10.40;54.80;;;;;;5003782;28;20422;-42
2022/11/13 04:48:49;;;;;;;5.13;3.40;;;10.30;54.70;;;;;;5000737;28;20057;-43
2022/11/13 04:51:16;;;;;;;5.88;3.88;;;10.30;54.70;;;;;;5003585;28;20050;-39
2022/11/13 04:53:45;;;;;;;4.85;3.60;;;10.30;54.50;;;;;;4989349;28;20050;-41
2022/11/13 04:56:13;;;;;;;5.18;3.78;;;10.30;54.60;;;;;;5003439;28;20065;-42
2022/11/13 04:58:40;;;;;;;4.57;3.20;;;10.30;54.50;;;;;;4991366;28;20062;-42
2022/11/13 05:01:08;;;;;;;5.68;4.00;;;10.30;54.50;;;;;;4996562;28;20046;-40
2022/11/13 05:03:35;;;;;;;4.93;3.90;;;10.30;54.60;;;;;;4987871;28;20893;-41
2022/11/13 05:06:04;;;;;;;4.95;3.67;;;10.30;54.60;;;;;;4992034;28;20069;-40
2022/11/13 05:08:31;;;;;;;5.22;3.60;;;10.20;54.40;;;;;;5000622;28;20053;-40
2022/11/13 05:10:58;;;;;;;5.28;3.72;;;10.20;54.40;;;;;;4995264;28;20149;-40
2022/11/13 05:13:29;;;;;;;4.50;3.60;;;10.20;54.40;;;;;;4986963;28;20065;-40
2022/11/13 05:16:00;;;;;;;5.80;4.07;;;10.20;54.40;;;;;;4989825;28;20054;-40
2022/11/13 05:18:27;;;;;;;4.93;3.75;;;10.20;54.40;;;;;;4992347;28;20062;-43
2022/11/13 05:20:55;;;;;;;4.78;3.60;;;10.10;54.30;;;;;;4993825;28;20066;-41
2022/11/13 05:23:22;;;;;;;6.35;3.97;;;10.10;54.30;;;;;;5002087;28;20604;-39
2022/11/13 05:25:49;;;;;;;9.13;4.75;;;10.10;54.30;;;;;;4995536;28;20055;-41
2022/11/13 05:28:16;;;;;;;5.78;4.07;;;10.10;54.30;;;;;;5001971;28;20445;-44
2022/11/13 05:30:45;;;;;;;5.97;4.00;;;10.00;54.30;;;;;;4999217;28;20061;-47
2022/11/13 05:36:35;;;;;;;7.18;3.90;;;10.00;54.30;;;;;;4999364;28;20030;-42
2022/11/13 05:39:02;;;;;;;5.57;3.97;;;10.00;54.30;;;;;;5002343;28;20061;-42
2022/11/13 05:41:30;;;;;;;4.97;3.78;;;10.00;54.40;;;;;;4996617;28;20050;-40
2022/11/13 05:43:57;;;;;;;6.43;4.30;;;9.90;54.80;;;;;;4991203;28;20055;-41
2022/11/13 05:46:27;;;;;;;6.93;3.85;;;9.90;54.40;;;;;;4991643;28;20058;-40
2022/11/13 05:48:56;;;;;;;7.40;3.85;;;9.90;54.40;;;;;;4985151;28;20411;-43
2022/11/13 05:51:25;;;;;;;4.70;3.33;;;9.80;54.40;;;;;;4982375;28;20062;-40
2022/11/13 05:53:53;;;;;;;5.35;3.53;;;9.80;54.40;;;;;;5000228;28;20064;-42
2022/11/13 05:56:23;;;;;;;5.65;3.88;;;9.80;54.40;;;;;;5006936;28;20505;-43
2022/11/13 05:58:52;;;;;;;4.28;3.17;;;9.80;54.40;;;;;;5003166;28;20060;-43
2022/11/13 06:01:21;;;;;;;3.78;3.03;;;9.80;54.50;;;;;;4995116;28;20423;-41
2022/11/13 06:03:50;;;;;;;7.45;3.60;;;9.80;54.50;;;;;;4990867;28;20054;-42
2022/11/13 06:06:19;;;;;;;6.13;4.05;;;9.80;54.40;;;;;;4999880;28;20525;-42
2022/11/13 06:08:48;;;;;;;5.78;3.83;;;9.80;54.40;;;;;;5003856;28;20057;-46
2022/11/13 06:11:17;;;;;;;6.65;3.30;;;9.80;54.40;;;;;;4991226;28;20049;-42
2022/11/13 06:13:45;;;;;;;4.13;3.10;;;9.70;54.30;;;;;;4996654;28;20062;-40
2022/11/13 06:16:14;;;;;;;6.45;3.25;;;9.80;54.30;;;;;;4998507;28;20065;-40
2022/11/13 06:18:43;;;;;;;4.85;3.08;;;9.70;54.30;;;;;;4996561;28;20057;-43
2022/11/13 06:21:13;;;;;;;4.78;3.13;;;9.70;54.30;;;;;;4993860;28;20407;-43
2022/11/13 06:23:41;;;;;;;3.90;2.60;;;9.70;54.30;;;;;;4993009;28;20375;-43
2022/11/13 06:26:10;;;;;;;7.35;3.55;;;9.70;54.30;;;;;;4988859;28;20391;-42
2022/11/13 06:28:38;;;;;;;5.72;3.28;;;9.70;54.30;;;;;;5006270;28;20053;-40
2022/11/13 06:31:06;;;;;;;3.72;3.00;;;9.70;54.30;;;;;;4998108;28;20057;-43
2022/11/13 06:33:34;;;;;;;5.07;3.03;;;9.70;54.20;;;;;;4994523;28;20474;-40
2022/11/13 06:36:02;;;;;;;4.68;3.33;;;9.70;54.20;;;;;;5000433;28;20121;-40
2022/11/13 06:38:32;;;;;;;4.00;2.95;;;9.70;54.20;;;;;;5004760;28;20080;-44
2022/11/13 06:41:00;;;;;;;5.25;3.20;;;9.70;54.30;;;;;;4997161;28;20058;-46
2022/11/13 06:43:28;;;;;;;3.75;2.55;;;9.70;54.30;;;;;;4992592;28;20070;-47
2022/11/13 06:45:56;;;;;;;4.43;3.05;;;9.70;54.20;;;;;;4992622;28;20050;-40
2022/11/13 06:48:24;;;;;;;4.13;3.08;;;9.70;54.30;;;;;;4999185;28;20054;-40
2022/11/13 06:50:51;;;;;;;3.17;2.50;;;9.70;54.20;;;;;;4992623;28;20065;-39
2022/11/13 06:53:19;;;;;;;3.85;2.85;;;9.70;54.20;;;;;;5002016;28;20080;-46
2022/11/13 06:55:49;;;;;;;3.92;2.75;;;9.70;54.20;;;;;;5005608;28;20054;-43
2022/11/13 06:58:16;;;;;;;3.63;2.65;;;9.70;54.20;;;;;;4997707;28;20437;-43
2022/11/13 07:00:44;;;;;;;4.05;2.70;;;9.70;54.20;;;;;;4996709;28;20528;-45
2022/11/13 07:03:16;;;;;;;5.43;3.47;;;9.70;54.70;;;;;;4993766;28;20050;-40
2022/11/13 07:05:43;;;;;;;6.03;3.85;;;9.70;54.20;;;;;;5004028;28;20058;-41
2022/11/13 07:08:10;;;;;;;5.10;3.35;;;9.70;54.20;;;;;;5000780;28;20060;-40
2022/11/13 07:10:37;;;;;;;4.97;3.10;;;9.70;54.20;;;;;;4993771;28;20050;-43
2022/11/13 07:13:07;;;;;;;5.78;3.63;;;9.80;54.20;;;;;;4989454;28;20061;-42
2022/11/13 07:15:34;;;;;;;6.63;3.60;;;9.70;54.10;;;;;;5005676;28;20057;-40
2022/11/13 07:18:02;;;;;;;4.75;3.13;;;9.70;54.10;;;;;;5005622;28;20050;-43
2022/11/13 07:20:30;;;;;;;5.30;3.17;;;9.70;54.10;;;;;;4999182;28;20050;-41
2022/11/13 07:22:57;;;;;;;4.05;2.85;;;9.80;54.20;;;;;;5003659;28;20057;-41
2022/11/13 07:25:25;;;;;;;5.60;3.13;;;9.80;54.20;;;;;;4984887;28;20501;-40
2022/11/13 07:27:52;;;;;;;3.70;2.90;;;9.70;54.20;;;;;;5000706;28;20054;-43
2022/11/13 07:30:21;;;;;;;4.70;3.35;;;9.80;54.20;;;;;;4995701;28;20438;-47
2022/11/13 07:32:48;;;;;;;3.63;2.90;;;9.80;54.20;;;;;;5005333;28;20064;-41
2022/11/13 07:35:16;;;;;;;4.93;2.70;;;9.80;54.20;;;;;;5004716;28;20054;-41
2022/11/13 07:37:43;;;;;;;4.30;3.05;;;9.80;54.20;;;;;;5000392;28;20069;-42
2022/11/13 07:40:11;;;;;;;4.68;2.90;;;9.90;54.20;;;;;;5001310;28;20509;-41
2022/11/13 07:42:39;;;;;;;4.25;3.05;;;9.90;54.20;;;;;;5004341;28;20050;-39
2022/11/13 07:45:07;;;;;;;4.60;3.13;;;9.90;54.10;;;;;;5005216;28;20137;-40
2022/11/13 07:47:35;;;;;;;3.78;2.45;;;9.90;54.10;;;;;;5000161;28;20061;-43
2022/11/13 07:50:03;;;;;;;5.18;2.85;;;9.90;54.10;;;;;;4984099;28;20050;-41
2022/11/13 07:52:30;;;;;;;4.03;2.75;;;10.00;54.20;;;;;;4994271;28;20406;-43
2022/11/13 07:54:57;;;;;;;4.65;3.00;;;10.00;54.10;;;;;;5004755;28;20057;-40
2022/11/13 07:57:26;;;;;;;6.63;2.97;;;10.00;54.20;;;;;;4986362;28;20058;-40
2022/11/13 07:59:53;;;;;;;5.97;2.58;;;10.10;54.20;;;;;;4999451;28;20058;-45
2022/11/13 08:02:20;;;;;;;4.95;3.05;;;10.10;54.10;;;;;;4987058;28;20418;-41
2022/11/13 08:04:49;;;;;;;3.65;2.47;;;10.10;54.10;;;;;;4993342;28;20058;-41
2022/11/13 08:07:16;;;;;;;7.78;2.80;;;10.10;54.00;;;;;;5003677;28;20057;-39
2022/11/13 08:09:43;;;;;;;5.22;2.67;;;10.10;54.00;;;;;;4986305;28;20120;-43
2022/11/13 08:12:10;;;;;;;8.65;3.05;;;10.20;54.00;;;;;;4989919;28;20396;-41
2022/11/13 08:14:38;;;;;;;3.88;2.58;;;10.20;54.10;;;;;;4988597;28;20062;-41
2022/11/13 08:17:05;;;;;;;4.40;2.65;;;10.20;54.00;;;;;;4998752;28;20065;-43
2022/11/13 08:19:32;;;;;;;3.58;2.42;;;10.30;54.00;;;;;;5002426;28;20064;-45
2022/11/13 08:22:00;;;;;;;5.47;2.80;;;10.30;54.00;;;;;;4981525;28;20065;-41
2022/11/13 08:24:28;;;;;;;3.42;2.65;;;10.30;54.00;;;;;;4979146;28;20054;-42
2022/11/13 08:26:56;;;;;;;4.32;3.03;;;10.40;54.00;;;;;;4989225;28;20049;-41
2022/11/13 08:29:23;;;;;;;4.78;3.10;;;10.40;54.00;;;;;;4983641;28;20050;-41
2022/11/13 08:31:50;;;;;;;3.70;3.03;;;10.40;54.00;;;;;;4992343;28;20869;-41
2022/11/13 08:34:17;;;;;;;3.38;2.53;;;10.50;54.00;;;;;;5000050;28;20069;-41
2022/11/13 08:36:45;;;;;;;4.47;2.83;;;10.50;54.00;;;;;;4984166;28;20069;-41
2022/11/13 08:39:13;;;;;;;6.07;2.40;;;10.50;54.10;;;;;;4987596;28;20073;-41
2022/11/13 08:41:41;;;;;;;5.65;2.60;;;10.60;54.10;;;;;;4991759;28;20055;-42
2022/11/13 08:44:09;;;;;;;4.40;2.83;;;10.60;54.20;;;;;;4984507;28;20061;-42
2022/11/13 08:46:36;;;;;;;7.07;2.78;;;10.70;54.20;;;;;;4986086;28;20054;-41
2022/11/13 08:49:03;;;;;;;3.45;2.63;;;10.70;54.20;;;;;;4993313;28;20063;-41
2022/11/13 08:51:30;;;;;;;4.38;2.58;;;10.70;54.10;;;;;;4978860;28;20062;-46
2022/11/13 08:53:58;;;;;;;4.75;3.13;;;10.80;54.20;;;;;;4989327;28;20473;-41
2022/11/13 08:56:26;;;;;;;6.25;2.47;;;10.80;54.20;;;;;;4998034;28;20065;-41
2022/11/13 08:58:53;;;;;;;5.32;2.90;;;10.80;54.20;;;;;;4990078;28;20066;-40
2022/11/13 09:01:22;;;;;;;4.65;2.78;;;10.90;54.20;;;;;;4984798;28;20054;-41
2022/11/13 09:03:49;;;;;;;4.97;3.08;;;10.90;54.30;;;;;;4987390;28;20386;-41
2022/11/13 09:06:16;;;;;;;3.78;2.72;;;11.00;54.30;;;;;;4995665;28;20053;-42
2022/11/13 09:08:44;;;;;;;4.25;2.88;;;11.00;54.20;;;;;;4988971;28;20526;-41
2022/11/13 09:11:11;;;;;;;6.63;3.15;;;11.10;54.30;;;;;;4981785;28;20081;-45
2022/11/13 09:13:40;;;;;;;4.13;3.05;;;11.10;54.20;;;;;;4992766;28;20065;-40
2022/11/13 09:16:07;;;;;;;5.90;3.25;;;11.20;54.30;;;;;;4989948;28;20096;-43
2022/11/13 09:18:35;;;;;;;4.93;2.83;;;11.20;54.30;;;;;;4993863;28;20054;-41
2022/11/13 09:21:02;;;;;;;5.20;3.20;;;11.20;54.30;;;;;;4981976;28;20577;-45
2022/11/13 09:23:30;;;;;;;6.85;2.88;;;11.30;54.20;;;;;;4984420;28;20055;-42
2022/11/13 09:26:00;;;;;;;6.90;2.80;;;11.30;54.10;;;;;;4985521;28;20069;-41
2022/11/13 09:28:27;;;;;;;4.70;2.83;;;11.40;54.10;;;;;;4988402;28;20069;-42
2022/11/13 09:30:56;;;;;;;3.92;2.80;;;11.40;54.00;;;;;;4985099;28;20062;-41
2022/11/13 09:33:24;;;;;;;4.20;2.70;;;11.50;54.00;;;;;;4987665;28;20067;-42
2022/11/13 09:35:51;;;;;;;6.85;2.72;;;11.60;54.00;;;;;;4996600;28;20073;-41
2022/11/13 09:38:18;;;;;;;4.45;2.60;;;11.60;53.90;;;;;;4999101;28;20054;-42
2022/11/13 09:40:52;;;;;;;4.57;2.58;;;11.70;53.90;;;;;;4991950;28;20073;-41
2022/11/13 09:43:28;;;;;;;3.67;2.37;;;11.70;53.90;;;;;;4995423;28;20402;-42
2022/11/13 09:46:01;;;;;;;4.28;2.20;;;11.80;54.00;;;;;;5002859;28;20047;-42
2022/11/13 09:48:34;;;;;;;4.35;2.65;;;11.80;53.90;;;;;;4996447;28;20054;-41
2022/11/13 09:51:06;;;;;;;3.35;2.33;;;11.90;53.80;;;;;;4989113;28;20093;-47
2022/11/13 09:53:38;;;;;;;4.88;2.20;;;12.00;53.70;;;;;;4997057;28;20050;-41
2022/11/13 09:56:15;;;;;;;4.00;2.55;;;12.00;53.70;;;;;;5006907;28;20413;-43
2022/11/13 09:58:48;;;;;;;2.65;2.20;;;12.10;53.60;;;;;;5001739;28;20050;-41
2022/11/13 10:01:25;;;;;;;3.88;2.70;;;12.10;53.50;;;;;;4995230;28;20054;-43
2022/11/13 10:03:58;;;;;;;2.92;2.03;;;12.20;53.30;;;;;;5001494;28;20057;-42
2022/11/13 10:06:34;;;;;;;4.75;2.40;;;12.30;53.30;;;;;;4987581;28;20046;-41
2022/11/13 10:09:12;;;;;;;2.97;2.20;;;12.40;53.00;;;;;;4990109;28;20057;-41
2022/11/13 10:11:43;;;;;;;3.58;2.30;;;12.40;53.00;;;;;;4987715;28;20058;-40
2022/11/13 10:14:18;;;;;;;3.83;2.33;;;12.50;53.10;;;;;;5005117;28;20054;-45
2022/11/13 10:16:53;;;;;;;4.07;2.05;;;12.60;53.10;;;;;;5004048;28;20061;-41
2022/11/13 10:19:27;;;;;;;3.28;2.20;;;12.60;53.10;;;;;;4998252;28;20054;-43
2022/11/13 10:22:02;;;;;;;5.03;2.60;;;12.70;53.00;;;;;;4989529;28;20058;-43
2022/11/13 10:24:37;;;;;;;3.58;2.40;;;12.80;52.80;;;;;;4999756;28;20050;-42
2022/11/13 10:27:08;;;;;;;4.18;2.53;;;12.80;52.60;;;;;;4990205;28;20050;-40
2022/11/13 10:29:36;;;;;;;3.30;2.53;;;12.90;52.70;;;;;;5001378;28;20069;-42
2022/11/13 10:32:16;;;;;;;2.58;2.00;;;12.90;52.70;;;;;;4993071;28;20058;-41
2022/11/13 10:34:46;;;;;;;3.42;2.22;;;13.00;52.40;;;;;;5000936;28;20054;-41
2022/11/13 10:37:28;;;;;;;2.50;2.00;;;13.10;52.40;;;;;;4994723;28;20062;-44
2022/11/13 10:39:55;;;;;;;3.10;2.10;;;13.20;52.30;;;;;;4992642;28;20060;-41
2022/11/13 10:42:24;;;;;;;2.90;1.90;;;13.20;52.30;;;;;;5000635;28;20054;-43
2022/11/13 10:44:54;;;;;;;3.45;2.35;;;13.30;52.00;;;;;;4988377;28;20395;-46
2022/11/13 10:47:24;;;;;;;2.78;1.95;;;13.30;51.80;;;;;;4985543;28;20429;-41
2022/11/13 10:49:51;;;;;;;3.58;2.00;;;13.40;51.50;;;;;;4983236;28;20066;-44
2022/11/13 10:52:21;;;;;;;2.53;1.70;;;13.50;51.30;;;;;;4998138;28;20062;-44
2022/11/13 10:54:50;;;;;;;3.72;2.00;;;13.50;51.20;;;;;;4991125;28;20076;-46
2022/11/13 10:57:23;;;;;;;2.22;1.45;;;13.60;51.20;;;;;;4999280;28;20050;-41
2022/11/13 10:59:51;;;;;;;3.75;1.98;;;13.60;51.10;;;;;;4997057;28;20058;-43
2022/11/13 11:02:20;;;;;;;2.90;1.90;;;13.80;51.20;;;;;;4990609;28;20494;-43
2022/11/13 11:04:49;;;;;;;3.35;1.70;;;13.80;51.00;;;;;;4992034;28;20054;-41
2022/11/13 11:07:19;;;;;;;2.70;1.80;;;13.90;50.90;;;;;;4994492;28;20054;-41
2022/11/13 11:09:47;;;;;;;3.40;1.90;;;13.90;50.90;;;;;;4996003;28;20058;-50
2022/11/13 11:12:17;;;;;;;2.83;1.70;;;14.00;51.00;;;;;;4985101;28;20065;-42
2022/11/13 11:15:09;;;;;;;3.72;1.45;;;14.10;50.90;;;;;;4980401;28;20050;-42
2022/11/13 11:17:42;;;;;;;2.10;1.55;;;14.20;50.40;;;;;;4983142;28;20486;-41
2022/11/13 11:20:21;;;;;;;3.38;1.63;;;14.20;50.30;;;;;;4988857;28;20883;-44
2022/11/13 11:22:52;;;;;;;2.40;1.60;;;14.30;50.00;;;;;;4990605;28;20050;-40
2022/11/13 11:25:26;;;;;;;2.40;1.52;;;14.30;49.70;;;;;;4985529;28;20062;-42
2022/11/13 11:28:00;;;;;;;2.55;1.77;;;14.40;49.60;;;;;;5001315;28;20053;-41
2022/11/13 11:30:32;;;;;;;2.63;1.80;;;14.40;49.40;;;;;;4988358;28;20046;-42
2022/11/13 11:33:06;;;;;;;2.58;1.80;;;14.50;49.50;;;;;;4995858;28;20051;-42
2022/11/13 11:35:41;;;;;;;2.45;1.60;;;14.50;49.20;;;;;;5001172;28;20414;-42
2022/11/13 11:38:15;;;;;;;2.15;1.50;;;14.60;49.10;;;;;;4984288;28;20054;-45
2022/11/13 11:40:46;;;;;;;3.22;1.70;;;14.60;49.00;;;;;;4995867;28;20063;-45
2022/11/13 11:43:19;;;;;;;3.80;1.42;;;14.70;49.00;;;;;;5005045;28;20058;-43
2022/11/13 11:45:47;;;;;;;2.38;1.70;;;14.70;48.60;;;;;;4989391;28;20406;-41
2022/11/13 11:48:16;;;;;;;2.10;1.60;;;14.80;48.20;;;;;;4996685;28;20054;-42
2022/11/13 11:50:50;;;;;;;2.58;1.50;;;14.80;48.10;;;;;;4984650;28;20062;-42
2022/11/13 11:53:25;;;;;;;2.75;2.00;;;14.90;47.90;;;;;;4998665;28;20414;-45
2022/11/13 11:56:09;;;;;;;2.78;1.60;;;15.00;48.30;;;;;;5004662;28;20054;-42
2022/11/13 11:59:13;;;;;;;2.25;1.67;;;15.00;47.50;;;;;;5002672;28;20073;-45
2022/11/13 12:02:01;;;;;;;2.50;1.42;;;15.10;47.10;;;;;;4991608;28;20077;-48
2022/11/13 12:04:40;;;;;;;2.83;1.48;;;15.20;47.20;;;;;;5004239;28;20383;-45
2022/11/13 12:07:23;;;;;;;2.17;1.60;;;15.30;47.10;;;;;;4994351;28;20054;-51
2022/11/13 12:09:59;;;;;;;2.38;1.65;;;15.30;46.80;;;;;;4998659;28;20072;-44
2022/11/13 12:12:44;;;;;;;2.83;1.60;;;15.40;46.90;;;;;;4993111;28;20061;-42
2022/11/13 12:15:15;;;;;;;;;;;15.40;46.70;;;;;;5004859;28;20045;-43
2022/11/13 12:17:53;;;;;;;3.30;1.58;;;15.50;47.30;;;;;;4995391;28;19932;-43
2022/11/13 12:20:30;;;;;;;2.50;1.60;;;15.60;46.80;;;;;;4999125;28;20066;-47
2022/11/13 12:23:08;;;;;;;4.35;1.70;;;15.60;46.70;;;;;;4998105;28;20053;-43
2022/11/13 12:25:41;;;;;;;2.13;1.52;;;15.70;46.70;;;;;;4988121;28;20084;-42
2022/11/13 12:28:17;;;;;;;3.25;1.60;;;15.70;46.80;;;;;;5000567;28;20391;-46
2022/11/13 12:30:53;;;;;;;1.80;1.40;;;15.70;46.40;;;;;;4991986;28;20050;-43
2022/11/13 12:33:31;;;;;;;2.10;1.50;;;15.80;46.20;;;;;;4989667;28;21247;-44
2022/11/13 12:35:58;;;;;;;1.85;1.45;;;15.80;46.20;;;;;;4998348;28;20060;-44
2022/11/13 12:38:36;;;;;;;3.60;1.60;;;15.80;46.20;;;;;;4997808;28;20066;-41
2022/11/13 12:41:13;;;;;;;3.33;1.23;;;15.90;45.90;;;;;;4998934;28;20401;-42
2022/11/13 12:44:17;;;;;;;2.17;1.33;;;15.90;46.30;;;;;;5003952;28;20057;-44
2022/11/13 12:46:45;;;;;;;2.42;1.52;;;16.00;46.00;;;;;;4995493;28;20050;-43
2022/11/13 12:49:31;;;;;;;2.67;1.70;;;16.00;46.10;;;;;;4996694;28;20501;-42
2022/11/13 12:52:01;;;;;;;2.67;2.00;;;16.00;45.80;;;;;;4978476;28;20046;-44
2022/11/13 12:54:31;;;;;;;1.65;1.35;;;16.10;46.10;;;;;;5003393;28;20050;-49
2022/11/13 12:57:07;;;;;;;4.13;1.60;;;16.10;46.00;;;;;;4999133;28;20065;-43
2022/11/13 12:59:38;;;;;;;2.67;1.48;;;16.10;45.60;;;;;;5003571;28;20050;-42
2022/11/13 13:02:26;;;;;;;3.70;1.80;;;16.10;45.50;;;;;;4989228;28;20061;-44
2022/11/13 13:05:06;;;;;;;2.58;1.50;;;16.20;45.20;;;;;;5002886;28;20054;-43
2022/11/13 13:07:58;;;;;;;2.25;1.42;;;16.20;45.50;;;;;;4991164;28;20061;-40
2022/11/13 13:10:36;;;;;;;2.17;1.52;;;16.20;45.10;;;;;;4985733;28;20068;-42